createdAt,value
2018-12-27T00:00:52.065Z,100.00
2018-12-27T00:03:21.893Z,100.00
2018-12-27T00:05:51.719Z,100.00
2018-12-27T00:08:21.524Z,100.00
2018-12-27T00:10:51.405Z,100.00
2018-12-27T00:13:21.573Z,100.00
2018-12-27T00:15:51.409Z,100.00
2018-12-27T00:18:21.135Z,100.00
2018-12-27T00:20:50.997Z,100.00
2018-12-27T00:23:20.701Z,100.00
2018-12-27T00:25:50.533Z,100.00
2018-12-27T00:28:20.382Z,100.00
2018-12-27T00:30:50.284Z,100.00
2018-12-27T00:33:20.283Z,100.00
2018-12-27T00:35:50.229Z,100.00
2018-12-27T00:38:20.183Z,100.00
2018-12-27T00:40:50.155Z,100.00
2018-12-27T00:43:20.116Z,100.00
2018-12-27T00:45:50.041Z,100.00
2018-12-27T00:48:20.004Z,100.00
2018-12-27T00:50:49.967Z,100.00
2018-12-27T00:53:19.931Z,100.00
2018-12-27T00:55:49.864Z,99.99
2018-12-27T00:58:19.801Z,99.88
2018-12-27T01:00:49.730Z,99.84
2018-12-27T01:03:19.711Z,99.95
2018-12-27T01:05:49.682Z,100.00
2018-12-27T01:08:19.837Z,99.73
2018-12-27T01:10:49.770Z,99.39
2018-12-27T01:13:19.773Z,99.65
2018-12-27T01:15:49.734Z,99.78
2018-12-27T01:18:19.716Z,99.28
2018-12-27T01:20:49.743Z,99.39
2018-12-27T01:23:22.862Z,99.17
2018-12-27T01:25:52.849Z,98.90
2018-12-27T01:28:23.223Z,98.84
2018-12-27T01:30:53.522Z,98.38
2018-12-27T01:33:23.487Z,98.32
2018-12-27T01:35:53.485Z,98.24
2018-12-27T01:38:23.644Z,97.98
2018-12-27T01:40:53.653Z,97.80
2018-12-27T01:43:23.622Z,97.79
2018-12-27T01:45:53.586Z,97.88
2018-12-27T01:48:23.555Z,97.90
2018-12-27T01:50:53.494Z,97.44
2018-12-27T01:53:23.494Z,97.61
2018-12-27T01:55:53.536Z,97.52
2018-12-27T01:58:23.461Z,97.77
2018-12-27T02:00:53.685Z,97.18
2018-12-27T02:03:26.588Z,97.25
2018-12-27T02:05:55.367Z,97.14
2018-12-27T02:08:25.335Z,97.39
2018-12-27T02:10:55.355Z,97.24
2018-12-27T02:13:25.396Z,97.26
2018-12-27T02:15:55.322Z,97.33
2018-12-27T02:18:25.335Z,96.91
2018-12-27T02:20:55.317Z,96.46
2018-12-27T02:23:25.301Z,96.54
2018-12-27T02:25:55.253Z,96.36
2018-12-27T02:28:25.210Z,96.62
2018-12-27T02:30:55.176Z,96.85
2018-12-27T02:33:25.144Z,97.06
2018-12-27T02:35:55.096Z,97.23
2018-12-27T02:38:25.303Z,96.82
2018-12-27T02:40:55.252Z,96.62
2018-12-27T02:43:25.213Z,96.89
2018-12-27T02:45:55.189Z,96.99
2018-12-27T02:48:25.092Z,96.89
2018-12-27T02:50:55.056Z,97.20
2018-12-27T02:53:24.991Z,97.42
2018-12-27T02:55:54.934Z,97.45
2018-12-27T02:58:24.908Z,97.54
2018-12-27T03:00:55.227Z,97.89
2018-12-27T03:03:25.225Z,97.46
2018-12-27T03:05:55.183Z,97.53
2018-12-27T03:08:25.110Z,97.26
2018-12-27T03:10:55.147Z,98.07
2018-12-27T03:13:25.104Z,98.08
2018-12-27T03:15:55.148Z,97.68
2018-12-27T03:18:25.078Z,98.22
2018-12-27T03:20:55.075Z,98.34
2018-12-27T03:23:25.073Z,98.18
2018-12-27T03:25:55.038Z,97.82
2018-12-27T03:28:24.979Z,98.59
2018-12-27T03:30:54.938Z,98.45
2018-12-27T03:33:24.957Z,98.60
2018-12-27T03:35:54.930Z,98.75
2018-12-27T03:38:24.881Z,98.58
2018-12-27T03:40:54.853Z,98.67
2018-12-27T03:43:24.851Z,98.80
2018-12-27T03:45:54.804Z,98.76
2018-12-27T03:48:24.716Z,99.19
2018-12-27T03:50:54.768Z,98.78
2018-12-27T03:53:24.721Z,98.99
2018-12-27T03:55:54.756Z,98.73
2018-12-27T03:58:24.687Z,98.93
2018-12-27T04:00:54.729Z,98.32
2018-12-27T04:03:24.753Z,98.70
2018-12-27T04:05:54.778Z,98.56
2018-12-27T04:08:24.728Z,98.45
2018-12-27T04:10:54.769Z,97.98
2018-12-27T04:13:31.881Z,98.18
2018-12-27T04:16:01.705Z,98.33
2018-12-27T04:18:31.476Z,98.56
2018-12-27T04:21:01.189Z,98.58
2018-12-27T04:23:30.883Z,98.50
2018-12-27T04:26:00.630Z,98.72
2018-12-27T04:28:30.344Z,98.47
2018-12-27T04:31:00.206Z,98.74
2018-12-27T04:33:30.068Z,98.81
2018-12-27T04:36:00.156Z,98.91
2018-12-27T04:38:29.849Z,98.81
2018-12-27T04:40:59.620Z,98.83
2018-12-27T04:43:29.683Z,98.92
2018-12-27T04:45:59.481Z,99.04
2018-12-27T04:48:29.210Z,99.06
2018-12-27T04:50:58.993Z,98.63
2018-12-27T04:53:28.709Z,98.71
2018-12-27T04:55:58.392Z,98.63
2018-12-27T04:58:28.105Z,98.12
2018-12-27T05:00:57.791Z,98.67
2018-12-27T05:03:27.574Z,98.61
2018-12-27T05:05:57.407Z,98.31
2018-12-27T05:08:27.061Z,98.06
2018-12-27T05:10:56.793Z,98.35
2018-12-27T05:13:26.531Z,98.29
2018-12-27T05:15:56.242Z,98.13
2018-12-27T05:18:26.331Z,97.76
2018-12-27T05:20:56.021Z,97.79
2018-12-27T05:23:25.712Z,97.70
2018-12-27T05:25:55.427Z,98.25
2018-12-27T05:28:25.103Z,98.24
2018-12-27T05:30:54.813Z,98.41
2018-12-27T05:33:24.485Z,98.79
2018-12-27T05:35:57.710Z,98.72
2018-12-27T05:38:30.122Z,98.47
2018-12-27T05:41:01.529Z,98.37
2018-12-27T05:43:31.331Z,99.22
2018-12-27T05:46:01.029Z,98.73
2018-12-27T05:48:30.941Z,98.51
2018-12-27T05:51:00.631Z,98.35
2018-12-27T05:53:30.353Z,98.20
2018-12-27T05:56:00.134Z,98.27
2018-12-27T05:58:29.858Z,98.31
2018-12-27T06:00:59.569Z,98.07
2018-12-27T06:03:29.266Z,98.22
2018-12-27T06:05:59.098Z,97.81
2018-12-27T06:08:28.790Z,98.46
2018-12-27T06:10:58.479Z,98.32
2018-12-27T06:13:28.285Z,97.87
2018-12-27T06:15:57.986Z,97.75
2018-12-27T06:18:27.791Z,98.08
2018-12-27T06:20:57.548Z,98.13
2018-12-27T06:23:27.430Z,97.93
2018-12-27T06:25:57.255Z,97.68
2018-12-27T06:28:26.968Z,97.28
2018-12-27T06:30:56.989Z,97.70
2018-12-27T06:33:26.866Z,97.96
2018-12-27T06:35:56.877Z,98.08
2018-12-27T06:38:26.796Z,97.49
2018-12-27T06:40:57.047Z,98.00
2018-12-27T06:43:26.739Z,98.11
2018-12-27T06:45:56.505Z,98.06
2018-12-27T06:48:26.307Z,98.39
2018-12-27T06:50:58.844Z,98.25
2018-12-27T06:53:28.623Z,98.57
2018-12-27T06:55:58.328Z,98.77
2018-12-27T06:58:28.052Z,98.69
2018-12-27T07:00:57.745Z,98.62
2018-12-27T07:03:27.469Z,98.54
2018-12-27T07:05:57.250Z,98.78
2018-12-27T07:08:26.971Z,98.56
2018-12-27T07:10:56.738Z,98.24
2018-12-27T07:13:26.470Z,97.89
2018-12-27T07:15:56.161Z,98.49
2018-12-27T07:18:25.940Z,98.83
2018-12-27T07:20:55.733Z,98.78
2018-12-27T07:23:25.433Z,98.37
2018-12-27T07:25:55.159Z,98.66
2018-12-27T07:28:24.894Z,98.59
2018-12-27T07:30:54.590Z,98.54
2018-12-27T07:33:24.264Z,98.81
2018-12-27T07:35:54.109Z,98.33
2018-12-27T07:38:23.808Z,98.82
2018-12-27T07:40:53.469Z,98.60
2018-12-27T07:43:23.175Z,99.01
2018-12-27T07:45:52.855Z,98.65
2018-12-27T07:48:22.574Z,98.45
2018-12-27T07:50:52.329Z,98.77
2018-12-27T07:53:22.199Z,98.42
2018-12-27T07:55:52.088Z,98.59
2018-12-27T07:58:21.846Z,98.35
2018-12-27T08:00:56.020Z,98.05
2018-12-27T08:03:26.543Z,97.90
2018-12-27T08:05:56.257Z,97.90
2018-12-27T08:08:25.957Z,98.19
2018-12-27T08:10:55.743Z,97.79
2018-12-27T08:13:25.443Z,98.92
2018-12-27T08:15:55.186Z,98.32
2018-12-27T08:18:25.011Z,98.15
2018-12-27T08:20:54.744Z,98.18
2018-12-27T08:23:24.443Z,98.18
2018-12-27T08:25:54.325Z,98.23
2018-12-27T08:28:24.068Z,98.19
2018-12-27T08:30:53.803Z,98.52
2018-12-27T08:33:23.468Z,98.93
2018-12-27T08:35:53.507Z,98.52
2018-12-27T08:38:23.268Z,98.54
2018-12-27T08:40:53.127Z,97.84
2018-12-27T08:43:22.874Z,98.23
2018-12-27T08:45:52.593Z,98.28
2018-12-27T08:48:22.341Z,98.16
2018-12-27T08:50:52.092Z,98.21
2018-12-27T08:53:21.894Z,97.91
2018-12-27T08:55:51.627Z,97.64
2018-12-27T08:58:21.370Z,98.36
2018-12-27T09:00:51.160Z,98.20
2018-12-27T09:03:20.904Z,98.10
2018-12-27T09:05:50.685Z,98.22
2018-12-27T09:08:20.419Z,97.97
2018-12-27T09:10:50.098Z,97.95
2018-12-27T09:13:19.866Z,97.61
2018-12-27T09:15:49.565Z,98.08
2018-12-27T09:18:19.239Z,98.06
2018-12-27T09:20:48.939Z,98.00
2018-12-27T09:23:18.629Z,97.68
2018-12-27T09:25:48.373Z,98.54
2018-12-27T09:28:18.069Z,98.15
2018-12-27T09:30:47.859Z,98.58
2018-12-27T09:33:17.589Z,98.55
2018-12-27T09:35:47.304Z,98.11
2018-12-27T09:38:17.078Z,98.48
2018-12-27T09:40:46.779Z,98.32
2018-12-27T09:43:16.549Z,98.49
2018-12-27T09:45:46.316Z,98.90
2018-12-27T09:48:16.082Z,98.75
2018-12-27T09:50:45.871Z,98.82
2018-12-27T09:53:17.133Z,98.51
2018-12-27T09:55:46.904Z,98.56
2018-12-27T09:58:16.592Z,99.02
2018-12-27T10:00:46.460Z,99.22
2018-12-27T10:03:16.297Z,99.44
2018-12-27T10:05:46.061Z,99.88
2018-12-27T10:08:15.882Z,99.77
2018-12-27T10:10:46.004Z,98.92
2018-12-27T10:13:15.717Z,98.93
2018-12-27T10:15:45.568Z,98.77
2018-12-27T10:18:15.413Z,99.12
2018-12-27T10:20:45.175Z,99.55
2018-12-27T10:23:14.960Z,99.89
2018-12-27T10:25:44.755Z,99.85
2018-12-27T10:28:14.554Z,99.76
2018-12-27T10:30:44.245Z,99.41
2018-12-27T10:33:14.105Z,99.77
2018-12-27T10:35:43.832Z,99.79
2018-12-27T10:38:13.619Z,100.00
2018-12-27T10:40:43.311Z,100.00
2018-12-27T10:43:13.103Z,99.75
2018-12-27T10:45:42.858Z,99.84
2018-12-27T10:48:12.548Z,99.36
2018-12-27T10:50:42.251Z,99.62
2018-12-27T10:53:12.016Z,99.85
2018-12-27T10:55:41.800Z,100.00
2018-12-27T10:58:11.482Z,100.00
2018-12-27T11:00:41.326Z,100.00
2018-12-27T11:03:11.006Z,100.00
2018-12-27T11:05:40.794Z,99.94
2018-12-27T11:08:10.528Z,100.00
2018-12-27T11:10:40.219Z,100.00
2018-12-27T11:13:10.037Z,100.00
2018-12-27T11:15:39.746Z,100.00
2018-12-27T11:18:09.542Z,100.00
2018-12-27T11:20:39.312Z,100.00
2018-12-27T11:23:09.182Z,100.00
2018-12-27T11:25:38.998Z,100.00
2018-12-27T11:28:08.781Z,100.00
2018-12-27T11:30:38.502Z,100.00
2018-12-27T11:33:08.266Z,100.00
2018-12-27T11:35:38.046Z,99.88
2018-12-27T11:38:07.727Z,99.78
2018-12-27T11:40:37.440Z,100.00
2018-12-27T11:43:07.139Z,100.00
2018-12-27T11:45:36.869Z,100.00
2018-12-27T11:48:06.663Z,100.00
2018-12-27T11:50:36.369Z,100.00
2018-12-27T11:53:06.158Z,100.00
2018-12-27T11:55:35.878Z,100.00
2018-12-27T11:58:05.635Z,100.00
2018-12-27T12:00:35.445Z,100.00
2018-12-27T12:03:05.178Z,100.00
2018-12-27T12:05:34.925Z,100.00
2018-12-27T12:08:04.786Z,100.00
2018-12-27T12:10:34.618Z,100.00
2018-12-27T12:13:10.105Z,100.00
2018-12-27T12:15:39.791Z,100.00
2018-12-27T12:18:09.597Z,100.00
2018-12-27T12:20:39.367Z,100.00
2018-12-27T12:23:09.132Z,100.00
2018-12-27T12:25:40.559Z,100.00
2018-12-27T12:28:10.336Z,100.00
2018-12-27T12:30:40.043Z,100.00
2018-12-27T12:33:09.709Z,100.00
2018-12-27T12:35:39.502Z,100.00
2018-12-27T12:38:09.262Z,100.00
2018-12-27T12:40:38.950Z,100.00
2018-12-27T12:43:08.704Z,100.00
2018-12-27T12:45:38.403Z,100.00
2018-12-27T12:48:08.174Z,100.00
2018-12-27T12:50:37.913Z,100.00
2018-12-27T12:53:07.709Z,100.00
2018-12-27T12:55:37.494Z,100.00
2018-12-27T12:58:07.305Z,100.00
2018-12-27T13:00:37.009Z,100.00
2018-12-27T13:03:06.752Z,100.00
2018-12-27T13:05:36.524Z,100.00
2018-12-27T13:08:06.270Z,100.00
2018-12-27T13:10:35.975Z,100.00
2018-12-27T13:13:05.761Z,100.00
2018-12-27T13:15:35.443Z,100.00
2018-12-27T13:18:05.220Z,100.00
2018-12-27T13:20:34.987Z,100.00
2018-12-27T13:23:04.707Z,100.00
2018-12-27T13:25:34.395Z,100.00
2018-12-27T13:28:04.095Z,100.00
2018-12-27T13:30:33.877Z,100.00
2018-12-27T13:33:03.635Z,100.00
2018-12-27T13:35:33.415Z,100.00
2018-12-27T13:38:03.101Z,100.00
2018-12-27T13:40:32.810Z,100.00
2018-12-27T13:43:02.494Z,100.00
2018-12-27T13:45:32.207Z,100.00
2018-12-27T13:48:02.400Z,100.00
2018-12-27T13:50:32.124Z,100.00
2018-12-27T13:53:01.819Z,100.00
2018-12-27T13:55:31.563Z,100.00
2018-12-27T13:58:01.253Z,100.00
2018-12-27T14:00:30.985Z,100.00
2018-12-27T14:03:00.809Z,100.00
2018-12-27T14:05:30.551Z,100.00
2018-12-27T14:08:00.322Z,100.00
2018-12-27T14:10:30.022Z,100.00
2018-12-27T14:12:59.706Z,100.00
2018-12-27T14:15:29.465Z,100.00
2018-12-27T14:17:59.418Z,100.00
2018-12-27T14:20:29.095Z,100.00
2018-12-27T14:22:58.815Z,100.00
2018-12-27T14:25:28.487Z,100.00
2018-12-27T14:27:58.145Z,100.00
2018-12-27T14:30:27.880Z,99.95
2018-12-27T14:32:57.581Z,100.00
2018-12-27T14:35:27.305Z,100.00
2018-12-27T14:37:57.074Z,100.00
2018-12-27T14:40:26.840Z,100.00
2018-12-27T14:42:56.654Z,100.00
2018-12-27T14:45:26.426Z,100.00
2018-12-27T14:47:56.113Z,100.00
2018-12-27T14:50:25.920Z,100.00
2018-12-27T14:52:55.691Z,100.00
2018-12-27T14:55:25.423Z,100.00
2018-12-27T14:57:55.178Z,100.00
2018-12-27T15:00:24.887Z,100.00
2018-12-27T15:02:54.656Z,100.00
2018-12-27T15:05:24.443Z,100.00
2018-12-27T15:07:54.139Z,100.00
2018-12-27T15:10:23.809Z,100.00
2018-12-27T15:12:53.518Z,100.00
2018-12-27T15:15:23.213Z,100.00
2018-12-27T15:17:52.878Z,100.00
2018-12-27T15:20:22.562Z,100.00
2018-12-27T15:22:52.255Z,100.00
2018-12-27T15:25:21.929Z,100.00
2018-12-27T15:27:51.629Z,100.00
2018-12-27T15:30:21.429Z,100.00
2018-12-27T15:32:51.130Z,100.00
2018-12-27T15:35:20.925Z,100.00
2018-12-27T15:37:50.625Z,100.00
2018-12-27T15:40:20.425Z,100.00
2018-12-27T15:42:50.207Z,100.00
2018-12-27T15:45:20.125Z,100.00
2018-12-27T15:47:49.827Z,100.00
2018-12-27T15:50:19.625Z,100.00
2018-12-27T15:52:49.332Z,100.00
2018-12-27T15:55:19.049Z,100.00
2018-12-27T15:57:48.833Z,100.00
2018-12-27T16:00:18.553Z,100.00
2018-12-27T16:02:48.242Z,100.00
2018-12-27T16:05:17.978Z,100.00
2018-12-27T16:07:47.740Z,100.00
2018-12-27T16:10:17.462Z,100.00
2018-12-27T16:12:47.252Z,100.00
2018-12-27T16:15:16.971Z,100.00
2018-12-27T16:17:46.661Z,100.00
2018-12-27T16:20:16.437Z,100.00
2018-12-27T16:22:46.231Z,100.00
2018-12-27T16:25:16.328Z,100.00
2018-12-27T16:27:46.004Z,100.00
2018-12-27T16:30:15.817Z,100.00
2018-12-27T16:32:45.523Z,100.00
2018-12-27T16:35:15.239Z,100.00
2018-12-27T16:37:44.952Z,100.00
2018-12-27T16:40:16.567Z,100.00
2018-12-27T16:42:46.259Z,100.00
2018-12-27T16:45:16.059Z,100.00
2018-12-27T16:47:45.840Z,100.00
2018-12-27T16:50:15.611Z,100.00
2018-12-27T16:52:45.338Z,100.00
2018-12-27T16:55:15.046Z,100.00
2018-12-27T16:57:44.745Z,100.00
2018-12-27T17:00:14.512Z,100.00
2018-12-27T17:02:44.278Z,100.00
2018-12-27T17:05:14.038Z,100.00
2018-12-27T17:07:44.287Z,100.00
2018-12-27T17:10:14.051Z,100.00
2018-12-27T17:12:43.805Z,100.00
2018-12-27T17:15:13.571Z,100.00
2018-12-27T17:17:43.292Z,100.00
2018-12-27T17:20:12.969Z,100.00
2018-12-27T17:22:42.886Z,100.00
2018-12-27T17:25:12.666Z,100.00
2018-12-27T17:27:42.397Z,100.00
2018-12-27T17:30:12.225Z,100.00
2018-12-27T17:32:42.037Z,100.00
2018-12-27T17:35:11.902Z,100.00
2018-12-27T17:37:41.603Z,100.00
2018-12-27T17:40:11.667Z,100.00
2018-12-27T17:42:41.479Z,100.00
2018-12-27T17:45:11.325Z,100.00
2018-12-27T17:47:41.157Z,100.00
2018-12-27T17:50:10.982Z,100.00
2018-12-27T17:52:40.696Z,100.00
2018-12-27T17:55:10.594Z,100.00
2018-12-27T17:57:40.360Z,100.00
2018-12-27T18:00:10.095Z,100.00
2018-12-27T18:02:39.889Z,100.00
2018-12-27T18:05:09.717Z,100.00
2018-12-27T18:07:39.436Z,100.00
2018-12-27T18:10:09.303Z,100.00
2018-12-27T18:12:39.086Z,100.00
2018-12-27T18:15:08.916Z,100.00
2018-12-27T18:17:38.728Z,100.00
2018-12-27T18:20:08.605Z,100.00
2018-12-27T18:22:38.400Z,100.00
2018-12-27T18:25:08.119Z,100.00
2018-12-27T18:27:37.925Z,100.00
2018-12-27T18:30:08.278Z,100.00
2018-12-27T18:32:38.049Z,100.00
2018-12-27T18:35:08.064Z,100.00
2018-12-27T18:37:38.099Z,100.00
2018-12-27T18:40:07.890Z,100.00
2018-12-27T18:42:37.760Z,100.00
2018-12-27T18:45:07.909Z,100.00
2018-12-27T18:47:37.610Z,100.00
2018-12-27T18:50:07.599Z,100.00
2018-12-27T18:52:37.419Z,100.00
2018-12-27T18:55:07.272Z,100.00
2018-12-27T18:57:37.082Z,100.00
2018-12-27T19:00:08.509Z,100.00
2018-12-27T19:02:41.875Z,100.00
2018-12-27T19:05:09.800Z,100.00
2018-12-27T19:07:44.956Z,100.00
2018-12-27T19:10:11.121Z,100.00
2018-12-27T19:13:04.292Z,100.00
2018-12-27T19:15:49.873Z,100.00
2018-12-27T19:18:48.580Z,100.00
2018-12-27T19:21:24.574Z,100.00
2018-12-27T19:23:54.307Z,100.00
2018-12-27T19:26:24.015Z,100.00
2018-12-27T19:28:53.775Z,100.00
2018-12-27T19:31:23.651Z,100.00
2018-12-27T19:33:53.386Z,100.00
2018-12-27T19:36:23.242Z,100.00
2018-12-27T19:38:52.965Z,100.00
2018-12-27T19:41:22.781Z,100.00
2018-12-27T19:43:52.829Z,100.00
2018-12-27T19:46:22.666Z,100.00
2018-12-27T19:48:52.473Z,100.00
2018-12-27T19:51:22.487Z,100.00
2018-12-27T19:53:52.276Z,100.00
2018-12-27T19:56:22.077Z,100.00
2018-12-27T19:58:52.143Z,100.00
2018-12-27T20:01:22.052Z,100.00
2018-12-27T20:03:51.778Z,100.00
2018-12-27T20:06:21.572Z,100.00
2018-12-27T20:08:51.361Z,100.00
2018-12-27T20:11:21.087Z,100.00
2018-12-27T20:13:50.874Z,100.00
2018-12-27T20:16:20.717Z,100.00
2018-12-27T20:18:50.553Z,100.00
2018-12-27T20:21:20.398Z,100.00
2018-12-27T20:23:50.121Z,100.00
2018-12-27T20:26:19.856Z,100.00
2018-12-27T20:28:49.592Z,100.00
2018-12-27T20:31:19.389Z,100.00
2018-12-27T20:33:49.148Z,100.00
2018-12-27T20:36:19.037Z,100.00
2018-12-27T20:38:48.783Z,100.00
2018-12-27T20:41:21.491Z,100.00
2018-12-27T20:43:51.227Z,100.00
2018-12-27T20:46:20.992Z,100.00
2018-12-27T20:48:50.729Z,100.00
2018-12-27T20:51:20.532Z,100.00
2018-12-27T20:53:50.343Z,100.00
2018-12-27T20:56:20.139Z,100.00
2018-12-27T20:58:49.852Z,100.00
2018-12-27T21:01:19.688Z,100.00
2018-12-27T21:03:49.407Z,100.00
2018-12-27T21:06:19.082Z,100.00
2018-12-27T21:08:48.802Z,100.00
2018-12-27T21:11:18.522Z,100.00
2018-12-27T21:13:48.214Z,100.00
2018-12-27T21:16:18.002Z,100.00
2018-12-27T21:18:47.773Z,100.00
2018-12-27T21:21:17.548Z,100.00
2018-12-27T21:23:47.224Z,100.00
2018-12-27T21:26:16.970Z,100.00
2018-12-27T21:28:46.841Z,100.00
2018-12-27T21:31:16.531Z,100.00
2018-12-27T21:33:46.269Z,100.00
2018-12-27T21:36:16.083Z,100.00
2018-12-27T21:38:45.881Z,100.00
2018-12-27T21:41:15.662Z,100.00
2018-12-27T21:43:45.451Z,100.00
2018-12-27T21:46:15.255Z,100.00
2018-12-27T21:48:44.957Z,100.00
2018-12-27T21:51:14.891Z,100.00
2018-12-27T21:53:44.695Z,100.00
2018-12-27T21:56:14.651Z,100.00
2018-12-27T21:58:44.341Z,100.00
2018-12-27T22:01:14.114Z,100.00
2018-12-27T22:03:43.955Z,100.00
2018-12-27T22:06:15.481Z,100.00
2018-12-27T22:08:45.197Z,100.00
2018-12-27T22:11:15.022Z,100.00
2018-12-27T22:13:44.826Z,100.00
2018-12-27T22:16:14.580Z,100.00
2018-12-27T22:18:44.418Z,100.00
2018-12-27T22:21:14.139Z,100.00
2018-12-27T22:23:43.905Z,100.00
2018-12-27T22:26:13.739Z,100.00
2018-12-27T22:28:43.467Z,100.00
2018-12-27T22:31:13.257Z,100.00
2018-12-27T22:33:43.054Z,100.00
2018-12-27T22:36:12.826Z,99.36
2018-12-27T22:38:42.561Z,99.48
2018-12-27T22:41:12.244Z,99.74
2018-12-27T22:43:42.207Z,99.42
2018-12-27T22:46:11.970Z,100.00
2018-12-27T22:48:41.885Z,99.69
2018-12-27T22:51:11.697Z,99.85
2018-12-27T22:53:41.390Z,99.69
2018-12-27T22:56:11.168Z,99.82
2018-12-27T22:58:40.841Z,99.87
2018-12-27T23:01:10.780Z,100.00
2018-12-27T23:03:40.532Z,100.00
2018-12-27T23:06:10.336Z,100.00
2018-12-27T23:08:43.129Z,100.00
2018-12-27T23:11:11.515Z,100.00
2018-12-27T23:13:41.212Z,100.00
2018-12-27T23:16:10.984Z,100.00
2018-12-27T23:18:40.806Z,100.00
2018-12-27T23:21:10.509Z,100.00
2018-12-27T23:23:45.623Z,100.00
2018-12-27T23:26:25.553Z,100.00
2018-12-27T23:28:58.477Z,100.00
2018-12-27T23:31:30.691Z,100.00
2018-12-27T23:34:05.617Z,100.00
2018-12-27T23:36:45.426Z,100.00
2018-12-27T23:39:29.684Z,100.00
2018-12-27T23:42:00.106Z,100.00
2018-12-27T23:44:36.022Z,100.00
2018-12-27T23:47:05.978Z,100.00
2018-12-27T23:49:35.659Z,100.00
2018-12-27T23:52:05.725Z,100.00
2018-12-27T23:54:35.387Z,100.00
2018-12-27T23:57:04.952Z,100.00
2018-12-27T23:59:34.749Z,100.00
